Time;durP1;ratioP1;P1;durP2;ratioP2;P2;SDS_P1;SDS_P2;PMS_P1;PMS_P2;Temp;Humidity;BMP_temperature;BMP_pressure;BME280_temperature;BME280_humidity;BME280_pressure;Samples;Min_cycle;Max_cycle;Signal;HPM_P1;HPM_P2
2021/09/23 00:00:14;;;;;;;11.68;8.00;;;12.80;99.90;;;;;;6301572;22;20371;-78
2021/09/23 00:05:20;;;;;;;10.77;8.23;;;12.90;99.90;;;;;;6302495;22;20019;-77
2021/09/23 00:07:47;;;;;;;13.73;7.22;;;12.90;99.90;;;;;;6303075;22;20042;-78
2021/09/23 00:10:18;;;;;;;11.55;8.18;;;12.90;99.90;;;;;;6304121;22;20040;-78
2021/09/23 00:12:44;;;;;;;10.18;7.63;;;12.90;99.90;;;;;;6301675;22;19999;-78
2021/09/23 00:15:10;;;;;;;12.05;8.45;;;12.90;99.90;;;;;;6303491;22;19999;-77
2021/09/23 00:17:36;;;;;;;10.23;7.57;;;12.90;99.90;;;;;;6302768;22;20325;-77
2021/09/23 00:20:02;;;;;;;15.30;9.23;;;13.00;99.90;;;;;;6302230;22;20018;-77
2021/09/23 00:22:27;;;;;;;13.10;8.15;;;13.00;99.90;;;;;;6303364;22;19999;-77
2021/09/23 00:24:53;;;;;;;13.20;7.53;;;13.00;99.90;;;;;;6303520;22;20057;-77
2021/09/23 00:27:18;;;;;;;10.63;8.07;;;13.00;99.90;;;;;;6303943;22;20040;-77
2021/09/23 00:29:44;;;;;;;11.65;8.43;;;12.90;99.90;;;;;;6303101;22;20003;-77
2021/09/23 00:32:09;;;;;;;12.15;8.13;;;13.00;99.90;;;;;;6302848;22;20074;-77
2021/09/23 00:34:35;;;;;;;12.55;8.57;;;12.90;99.90;;;;;;6303773;22;19999;-77
2021/09/23 00:37:00;;;;;;;11.07;7.65;;;13.00;99.90;;;;;;6302847;22;20003;-77
2021/09/23 00:39:26;;;;;;;11.93;7.47;;;13.00;99.90;;;;;;6302501;22;20104;-77
2021/09/23 00:41:52;;;;;;;8.90;7.07;;;13.00;99.90;;;;;;6303502;22;20049;-77
2021/09/23 00:44:20;;;;;;;11.25;7.15;;;13.00;99.90;;;;;;6303243;22;20504;-77
2021/09/23 00:46:48;;;;;;;11.30;7.72;;;13.00;99.90;;;;;;6303556;22;20002;-77
2021/09/23 00:49:13;;;;;;;14.32;8.23;;;12.90;99.90;;;;;;6302917;22;20015;-78
2021/09/23 00:51:39;;;;;;;11.88;8.18;;;12.90;99.90;;;;;;6302496;22;20086;-78
2021/09/23 00:54:05;;;;;;;12.68;8.02;;;12.90;99.90;;;;;;6302176;22;20496;-80
2021/09/23 00:56:31;;;;;;;10.85;7.85;;;12.90;99.90;;;;;;6303729;22;20057;-79
2021/09/23 00:58:57;;;;;;;14.05;8.25;;;12.90;99.90;;;;;;6301966;22;20007;-79
2021/09/23 01:01:24;;;;;;;12.70;8.23;;;12.90;99.90;;;;;;6275738;22;20526;-79
2021/09/23 01:03:49;;;;;;;13.85;8.50;;;12.90;99.90;;;;;;6275618;22;20326;-79
2021/09/23 01:06:15;;;;;;;10.93;7.85;;;12.90;99.90;;;;;;6301663;22;19995;-79
2021/09/23 01:08:51;;;;;;;12.52;8.13;;;12.90;99.90;;;;;;6301929;22;20018;-79
2021/09/23 01:11:17;;;;;;;9.07;7.40;;;12.90;99.90;;;;;;6302382;22;20003;-78
2021/09/23 01:13:42;;;;;;;15.48;8.55;;;12.90;99.90;;;;;;6301308;22;20014;-76
2021/09/23 01:16:10;;;;;;;11.48;7.35;;;12.90;99.90;;;;;;6302969;22;20056;-78
2021/09/23 01:18:35;;;;;;;12.30;7.90;;;12.90;99.90;;;;;;6302341;22;20011;-77
2021/09/23 01:21:05;;;;;;;12.23;8.38;;;12.90;99.90;;;;;;6303436;22;20010;-78
2021/09/23 01:23:42;;;;;;;11.93;8.02;;;12.90;99.90;;;;;;6304214;22;20003;-77
2021/09/23 01:26:10;;;;;;;12.38;8.13;;;12.90;99.90;;;;;;6303059;22;20011;-77
2021/09/23 01:28:38;;;;;;;14.13;9.20;;;12.90;99.90;;;;;;6301859;22;20500;-77
2021/09/23 01:31:04;;;;;;;10.85;8.23;;;12.90;99.90;;;;;;6302237;22;19999;-78
2021/09/23 01:33:30;;;;;;;12.15;8.07;;;12.90;99.90;;;;;;6301835;22;20329;-77
2021/09/23 01:35:55;;;;;;;10.02;8.13;;;12.90;99.90;;;;;;6303040;22;19999;-78
2021/09/23 01:38:23;;;;;;;12.38;8.18;;;12.90;99.90;;;;;;6301077;22;20042;-78
2021/09/23 01:40:49;;;;;;;14.32;9.00;;;12.90;99.90;;;;;;6303187;22;20129;-78
2021/09/23 01:43:14;;;;;;;14.77;8.65;;;12.90;99.90;;;;;;6302648;22;20417;-78
2021/09/23 01:45:40;;;;;;;14.00;9.75;;;12.80;99.90;;;;;;6302260;22;20007;-78
2021/09/23 01:48:05;;;;;;;16.10;9.48;;;12.80;99.90;;;;;;6301993;22;20083;-78
2021/09/23 01:50:31;;;;;;;10.27;8.13;;;12.80;99.90;;;;;;6301091;22;20006;-78
2021/09/23 01:52:56;;;;;;;10.15;7.88;;;12.80;99.90;;;;;;6274775;22;20025;-78
2021/09/23 01:55:22;;;;;;;11.95;8.25;;;12.90;99.90;;;;;;6303110;22;20414;-78
2021/09/23 01:57:48;;;;;;;13.68;9.40;;;12.90;99.90;;;;;;6273634;22;20011;-78
2021/09/23 02:00:14;;;;;;;12.48;8.30;;;12.90;99.90;;;;;;6303309;22;20035;-77
2021/09/23 02:02:40;;;;;;;16.80;8.93;;;12.90;99.90;;;;;;6301640;22;20003;-77
2021/09/23 02:05:06;;;;;;;11.05;8.05;;;12.90;99.90;;;;;;6274590;22;20074;-76
2021/09/23 02:07:32;;;;;;;12.73;9.25;;;12.90;99.90;;;;;;6301033;22;20007;-76
2021/09/23 02:09:57;;;;;;;13.60;8.20;;;12.90;99.90;;;;;;6301554;22;20049;-77
2021/09/23 02:12:22;;;;;;;12.93;7.70;;;12.90;99.90;;;;;;6302669;22;20076;-77
2021/09/23 02:14:49;;;;;;;16.58;8.90;;;12.90;99.90;;;;;;6302490;22;20027;-77
2021/09/23 02:17:14;;;;;;;13.13;8.60;;;12.90;99.90;;;;;;6302324;22;19995;-77
2021/09/23 02:19:40;;;;;;;12.70;7.85;;;12.90;99.90;;;;;;6301722;22;20034;-76
2021/09/23 02:22:05;;;;;;;16.23;8.07;;;12.90;99.90;;;;;;6301997;22;20418;-76
2021/09/23 02:24:31;;;;;;;13.57;8.02;;;12.80;99.90;;;;;;6301963;22;20037;-77
2021/09/23 02:26:57;;;;;;;15.30;9.00;;;12.80;99.90;;;;;;6300941;22;20015;-77
2021/09/23 02:29:22;;;;;;;11.43;8.88;;;12.80;99.90;;;;;;6300596;22;20094;-77
2021/09/23 02:31:47;;;;;;;12.63;8.30;;;12.80;99.90;;;;;;6301850;22;20000;-77
2021/09/23 02:34:13;;;;;;;10.93;7.68;;;12.80;99.90;;;;;;6302421;22;20003;-77
2021/09/23 02:36:39;;;;;;;14.23;7.80;;;12.80;99.90;;;;;;6301723;22;19999;-77
2021/09/23 02:39:04;;;;;;;13.40;8.55;;;12.80;99.90;;;;;;6301323;22;20010;-77
2021/09/23 02:41:31;;;;;;;13.48;8.15;;;12.80;99.90;;;;;;6300668;22;19999;-79
2021/09/23 02:43:57;;;;;;;12.45;7.95;;;12.80;99.90;;;;;;6302054;22;20003;-78
2021/09/23 02:46:22;;;;;;;15.60;8.40;;;12.80;99.90;;;;;;6303041;22;20030;-78
2021/09/23 02:48:48;;;;;;;11.00;8.43;;;12.80;99.90;;;;;;6300619;22;20011;-79
2021/09/23 02:51:13;;;;;;;11.52;8.45;;;12.80;99.90;;;;;;6301914;22;20011;-78
2021/09/23 02:53:39;;;;;;;12.65;7.53;;;12.70;99.90;;;;;;6302412;22;20061;-78
2021/09/23 02:56:04;;;;;;;8.98;6.85;;;12.80;99.90;;;;;;6300714;22;20003;-78
2021/09/23 02:58:30;;;;;;;11.80;7.88;;;12.70;99.90;;;;;;6301460;22;20113;-78
2021/09/23 03:00:55;;;;;;;12.20;7.15;;;12.70;99.90;;;;;;6301308;22;20021;-78
2021/09/23 03:03:21;;;;;;;11.27;7.15;;;12.70;99.90;;;;;;6301935;22;20000;-78
2021/09/23 03:05:46;;;;;;;11.15;7.65;;;12.70;99.90;;;;;;6301774;22;20026;-79
2021/09/23 03:08:12;;;;;;;11.40;7.72;;;12.70;99.90;;;;;;6301268;22;19999;-78
2021/09/23 03:10:37;;;;;;;9.20;7.10;;;12.70;99.90;;;;;;6274404;22;20030;-78
2021/09/23 03:13:03;;;;;;;13.27;7.25;;;12.70;99.90;;;;;;6302440;22;20094;-78
2021/09/23 03:15:29;;;;;;;10.65;8.27;;;12.60;99.90;;;;;;6301783;22;20422;-78
2021/09/23 03:17:54;;;;;;;9.32;6.70;;;12.60;99.90;;;;;;6301478;22;20325;-78
2021/09/23 03:20:23;;;;;;;10.88;8.52;;;12.60;99.90;;;;;;6301219;22;20000;-78
2021/09/23 03:22:51;;;;;;;13.02;8.50;;;12.60;99.90;;;;;;6300885;22;20006;-78
2021/09/23 03:25:16;;;;;;;11.60;7.75;;;12.60;99.90;;;;;;6302308;22;19996;-78
2021/09/23 03:27:43;;;;;;;15.18;8.23;;;12.50;99.90;;;;;;6301490;22;20048;-78
2021/09/23 03:30:09;;;;;;;12.25;7.90;;;12.50;99.90;;;;;;6301640;22;20104;-78
2021/09/23 03:32:34;;;;;;;10.23;7.32;;;12.50;99.90;;;;;;6301861;22;20105;-78
2021/09/23 03:35:00;;;;;;;13.80;7.47;;;12.50;99.90;;;;;;6301772;22;20005;-78
2021/09/23 03:37:26;;;;;;;16.65;8.27;;;12.50;99.90;;;;;;6301461;22;20006;-78
2021/09/23 03:39:51;;;;;;;11.52;7.45;;;12.40;99.90;;;;;;6300688;22;19995;-78
2021/09/23 03:42:17;;;;;;;10.10;6.75;;;12.40;99.90;;;;;;6300731;22;20418;-78
2021/09/23 03:44:42;;;;;;;9.70;6.97;;;12.40;99.90;;;;;;6302094;22;20414;-77
2021/09/23 03:47:08;;;;;;;16.65;8.00;;;12.40;99.90;;;;;;6301587;22;20044;-77
2021/09/23 03:49:33;;;;;;;12.93;7.88;;;12.40;99.90;;;;;;6299850;22;20106;-76
2021/09/23 03:51:59;;;;;;;14.93;8.02;;;12.30;99.90;;;;;;6299942;22;19999;-76
2021/09/23 03:54:24;;;;;;;14.70;7.75;;;12.30;99.90;;;;;;6273952;22;20056;-76
2021/09/23 03:56:50;;;;;;;10.60;7.47;;;12.30;99.90;;;;;;6301504;22;20004;-77
2021/09/23 03:59:15;;;;;;;14.70;8.55;;;12.30;99.90;;;;;;6301588;22;20082;-78
2021/09/23 04:01:41;;;;;;;12.93;8.18;;;12.30;99.90;;;;;;6301200;22;20354;-78
2021/09/23 04:04:07;;;;;;;11.27;7.72;;;12.30;99.90;;;;;;6274559;22;20007;-77
2021/09/23 04:06:33;;;;;;;13.48;8.10;;;12.30;99.90;;;;;;6302736;22;20019;-78
2021/09/23 04:08:58;;;;;;;11.55;8.63;;;12.30;99.90;;;;;;6299762;22;20060;-77
2021/09/23 04:11:24;;;;;;;11.80;8.65;;;12.30;99.90;;;;;;6299929;22;19995;-78
2021/09/23 04:13:49;;;;;;;11.88;7.88;;;12.30;99.90;;;;;;6301482;22;20488;-78
2021/09/23 04:16:15;;;;;;;13.73;7.45;;;12.30;99.90;;;;;;6301467;22;20007;-78
2021/09/23 04:18:40;;;;;;;12.75;8.00;;;12.30;99.90;;;;;;6301513;22;20031;-78
2021/09/23 04:21:06;;;;;;;13.38;8.27;;;12.30;99.90;;;;;;6300772;22;20003;-77
2021/09/23 04:23:31;;;;;;;8.45;6.47;;;12.30;99.90;;;;;;6300067;22;20359;-78
2021/09/23 04:25:57;;;;;;;11.73;7.63;;;12.30;99.90;;;;;;6299457;22;20015;-77
2021/09/23 04:28:22;;;;;;;12.27;6.97;;;12.30;99.90;;;;;;6271642;22;20011;-78
2021/09/23 04:30:47;;;;;;;9.20;7.10;;;12.30;99.90;;;;;;6300573;22;20026;-77
2021/09/23 04:33:13;;;;;;;11.88;7.90;;;12.30;99.90;;;;;;6298904;22;19996;-78
2021/09/23 04:35:38;;;;;;;11.18;8.18;;;12.30;99.90;;;;;;6299863;22;19999;-76
2021/09/23 04:38:05;;;;;;;15.30;8.70;;;12.30;99.90;;;;;;6301480;22;20003;-77
2021/09/23 04:40:31;;;;;;;11.25;7.03;;;12.30;99.90;;;;;;6301630;22;20440;-77
2021/09/23 04:42:56;;;;;;;10.82;7.47;;;12.30;99.90;;;;;;6300269;22;20052;-77
2021/09/23 04:45:22;;;;;;;11.13;7.03;;;12.30;99.90;;;;;;6301399;22;20010;-77
2021/09/23 04:47:48;;;;;;;12.23;7.97;;;12.30;99.90;;;;;;6297780;22;20475;-77
2021/09/23 04:50:13;;;;;;;11.10;8.18;;;12.30;99.90;;;;;;6298894;22;20027;-77
2021/09/23 04:52:39;;;;;;;11.43;7.90;;;12.30;99.90;;;;;;6301467;22;20391;-78
2021/09/23 04:55:06;;;;;;;11.40;7.88;;;12.30;99.90;;;;;;6296576;22;20053;-78
2021/09/23 04:57:35;;;;;;;11.38;7.72;;;12.30;99.90;;;;;;6275572;22;20007;-77
2021/09/23 05:00:03;;;;;;;11.98;7.78;;;12.30;99.90;;;;;;6303438;22;20046;-76
2021/09/23 05:02:34;;;;;;;11.52;8.55;;;12.30;99.90;;;;;;6302611;22;20425;-77
2021/09/23 05:05:00;;;;;;;9.20;7.47;;;12.30;99.90;;;;;;6303546;22;20060;-77
2021/09/23 05:07:25;;;;;;;12.45;7.88;;;12.20;99.90;;;;;;6302777;22;19999;-78
2021/09/23 05:09:51;;;;;;;11.07;7.95;;;12.30;99.90;;;;;;6303027;22;20003;-78
2021/09/23 05:12:16;;;;;;;8.32;6.47;;;12.20;99.90;;;;;;6303532;22;19995;-77
2021/09/23 05:14:42;;;;;;;12.70;7.47;;;12.20;99.90;;;;;;6302867;22;20003;-76
2021/09/23 05:17:07;;;;;;;8.80;6.75;;;12.20;99.90;;;;;;6303512;22;20000;-77
2021/09/23 05:19:33;;;;;;;9.25;7.25;;;12.20;99.90;;;;;;6301918;22;20007;-76
2021/09/23 05:21:58;;;;;;;13.80;7.60;;;12.20;99.90;;;;;;6302278;22;20422;-77
2021/09/23 05:24:24;;;;;;;9.18;7.30;;;12.20;99.90;;;;;;6302277;22;20010;-78
2021/09/23 05:26:49;;;;;;;10.43;7.20;;;12.20;99.90;;;;;;6303045;22;20088;-77
2021/09/23 05:29:15;;;;;;;9.18;7.05;;;12.20;99.90;;;;;;6302140;22;20011;-76
2021/09/23 05:31:40;;;;;;;9.48;7.20;;;12.20;99.90;;;;;;6275307;22;20034;-76
2021/09/23 05:34:06;;;;;;;8.55;6.90;;;12.20;99.90;;;;;;6303682;22;20053;-76
2021/09/23 05:36:32;;;;;;;9.05;7.25;;;12.20;99.90;;;;;;6301814;22;20027;-76
2021/09/23 05:38:59;;;;;;;9.48;6.57;;;12.30;99.90;;;;;;6302223;22;20012;-77
2021/09/23 05:41:26;;;;;;;10.00;7.13;;;12.30;99.90;;;;;;6302560;22;20026;-76
2021/09/23 05:43:52;;;;;;;9.07;6.90;;;12.30;99.90;;;;;;6276034;22;20007;-78
2021/09/23 05:46:17;;;;;;;9.63;6.68;;;12.30;99.90;;;;;;6303323;22;20003;-78
2021/09/23 05:48:43;;;;;;;8.43;7.32;;;12.30;99.90;;;;;;6301963;22;20022;-78
2021/09/23 05:51:08;;;;;;;11.75;7.65;;;12.30;99.90;;;;;;6303189;22;20034;-78
2021/09/23 05:53:33;;;;;;;9.63;7.30;;;12.30;99.90;;;;;;6303558;22;20414;-78
2021/09/23 05:55:59;;;;;;;12.38;6.35;;;12.40;99.90;;;;;;6303723;22;20518;-78
2021/09/23 05:58:24;;;;;;;10.20;6.95;;;12.40;99.90;;;;;;6304178;22;20023;-77
2021/09/23 06:00:50;;;;;;;9.38;7.10;;;12.40;99.90;;;;;;6302871;22;19991;-77
2021/09/23 06:03:15;;;;;;;10.15;6.38;;;12.50;99.90;;;;;;6303980;22;20084;-77
2021/09/23 06:05:41;;;;;;;11.57;7.38;;;12.60;99.90;;;;;;6302512;22;19995;-76
2021/09/23 06:08:07;;;;;;;11.23;7.25;;;12.60;99.90;;;;;;6302055;22;20014;-76
2021/09/23 06:10:32;;;;;;;9.57;6.88;;;12.70;99.90;;;;;;6303347;22;20031;-77
2021/09/23 06:12:58;;;;;;;8.10;6.68;;;12.80;99.90;;;;;;6274318;22;20014;-76
2021/09/23 06:15:23;;;;;;;13.00;7.03;;;12.80;99.90;;;;;;6275791;22;20011;-76
2021/09/23 06:17:49;;;;;;;8.88;5.95;;;12.80;99.90;;;;;;6302039;22;20657;-77
2021/09/23 06:20:14;;;;;;;9.13;7.13;;;12.80;99.90;;;;;;6302177;22;20022;-77
2021/09/23 06:22:40;;;;;;;10.20;6.70;;;12.90;99.90;;;;;;6302617;22;20074;-77
2021/09/23 06:25:07;;;;;;;9.93;7.57;;;13.00;99.90;;;;;;6302288;22;20080;-77
2021/09/23 06:27:32;;;;;;;7.43;5.75;;;13.00;99.90;;;;;;6298837;22;20034;-76
2021/09/23 06:29:58;;;;;;;12.05;6.35;;;13.10;99.90;;;;;;6300666;22;20425;-76
2021/09/23 06:32:23;;;;;;;12.77;6.22;;;13.10;99.90;;;;;;6302100;22;19999;-76
2021/09/23 06:34:48;;;;;;;7.93;5.95;;;13.20;99.90;;;;;;6303302;22;20002;-79
2021/09/23 06:37:14;;;;;;;6.80;5.78;;;13.20;99.90;;;;;;6302336;22;20030;-76
2021/09/23 06:39:40;;;;;;;11.95;6.07;;;13.30;99.90;;;;;;6302016;22;20015;-78
2021/09/23 06:42:06;;;;;;;10.05;7.28;;;13.30;99.90;;;;;;6302709;22;19998;-77
2021/09/23 06:44:32;;;;;;;7.47;5.63;;;13.40;99.90;;;;;;6302565;22;20023;-76
2021/09/23 06:46:58;;;;;;;6.85;5.40;;;13.40;99.90;;;;;;6303019;22;20030;-77
2021/09/23 06:49:25;;;;;;;10.27;6.35;;;13.50;99.90;;;;;;6301350;22;20434;-77
2021/09/23 06:51:51;;;;;;;6.40;5.00;;;13.50;99.90;;;;;;6302002;22;20000;-76
2021/09/23 06:54:17;;;;;;;6.82;5.75;;;13.60;99.90;;;;;;6303404;22;20023;-76
2021/09/23 06:56:43;;;;;;;7.97;5.85;;;13.60;99.90;;;;;;6302708;22;20031;-77
2021/09/23 06:59:08;;;;;;;7.47;5.35;;;13.70;99.90;;;;;;6302297;22;20334;-77
2021/09/23 07:01:36;;;;;;;6.90;4.93;;;13.70;99.90;;;;;;6301812;22;20086;-77
2021/09/23 07:04:02;;;;;;;6.70;4.72;;;13.80;99.90;;;;;;6303137;22;20006;-77
2021/09/23 07:06:27;;;;;;;8.25;5.32;;;13.80;99.90;;;;;;6302827;22;20003;-78
2021/09/23 07:08:53;;;;;;;7.65;5.20;;;13.90;99.90;;;;;;6302042;22;20100;-77
2021/09/23 07:11:18;;;;;;;8.32;5.28;;;14.00;99.90;;;;;;6302388;22;20003;-77
2021/09/23 07:13:44;;;;;;;6.07;4.65;;;14.10;99.90;;;;;;6302330;22;20504;-77
2021/09/23 07:16:10;;;;;;;6.30;4.57;;;14.10;99.90;;;;;;6275131;22;20310;-76
2021/09/23 07:18:36;;;;;;;6.15;4.78;;;14.20;99.90;;;;;;6302127;22;20007;-78
2021/09/23 07:21:02;;;;;;;7.95;4.32;;;14.30;99.50;;;;;;6300112;22;20053;-78
2021/09/23 07:23:28;;;;;;;7.75;4.72;;;14.40;99.40;;;;;;6302565;22;20365;-77
2021/09/23 07:25:53;;;;;;;6.85;4.85;;;14.50;99.20;;;;;;6302648;22;20000;-77
2021/09/23 07:28:20;;;;;;;6.40;4.30;;;14.60;99.10;;;;;;6301593;22;20025;-78
2021/09/23 07:30:46;;;;;;;8.10;4.75;;;14.60;98.90;;;;;;6302553;22;19999;-78
2021/09/23 07:33:11;;;;;;;6.32;4.35;;;14.80;99.10;;;;;;6302522;22;20076;-78
2021/09/23 07:35:37;;;;;;;5.03;4.03;;;14.80;98.80;;;;;;6275329;22;20000;-78
2021/09/23 07:38:03;;;;;;;5.28;4.40;;;14.90;98.80;;;;;;6300827;22;20091;-77
2021/09/23 07:40:29;;;;;;;6.30;4.65;;;15.10;98.80;;;;;;6275299;22;19996;-77
2021/09/23 07:42:54;;;;;;;11.80;4.15;;;15.20;98.30;;;;;;6302436;22;20094;-78
2021/09/23 07:45:20;;;;;;;4.50;3.88;;;15.20;98.20;;;;;;6302218;22;20022;-78
2021/09/23 07:47:46;;;;;;;6.43;4.25;;;15.30;98.10;;;;;;6301709;22;20034;-79
2021/09/23 07:50:12;;;;;;;7.25;3.95;;;15.40;98.30;;;;;;6302366;22;20003;-78
2021/09/23 07:52:38;;;;;;;5.65;4.55;;;15.50;97.40;;;;;;6301548;22;20023;-78
2021/09/23 07:55:05;;;;;;;6.88;4.40;;;15.70;97.10;;;;;;6302517;22;20014;-77
2021/09/23 07:57:31;;;;;;;9.80;4.53;;;15.70;97.20;;;;;;6301627;22;19992;-77
2021/09/23 07:59:56;;;;;;;6.53;4.10;;;15.90;97.20;;;;;;6301450;22;20069;-78
2021/09/23 08:02:22;;;;;;;7.55;3.80;;;16.00;96.80;;;;;;6299792;22;20345;-78
2021/09/23 08:04:48;;;;;;;9.75;3.75;;;16.20;96.70;;;;;;6301864;22;20429;-77
2021/09/23 08:07:14;;;;;;;4.30;3.85;;;16.30;96.30;;;;;;6301727;22;19999;-76
2021/09/23 08:09:40;;;;;;;4.88;3.65;;;16.40;96.40;;;;;;6301192;22;20010;-78
2021/09/23 08:12:07;;;;;;;5.68;3.70;;;16.60;96.20;;;;;;6301667;22;20011;-77
2021/09/23 08:14:32;;;;;;;7.32;3.45;;;16.70;95.60;;;;;;6302572;22;20000;-76
2021/09/23 08:16:58;;;;;;;5.18;4.03;;;16.80;96.00;;;;;;6301924;22;20014;-76
2021/09/23 08:19:23;;;;;;;7.75;4.63;;;16.90;95.70;;;;;;6301632;22;20008;-76
2021/09/23 08:21:49;;;;;;;4.57;3.50;;;17.00;95.70;;;;;;6274083;22;20007;-76
2021/09/23 08:24:14;;;;;;;6.20;4.18;;;17.10;95.50;;;;;;6302524;22;20078;-76
2021/09/23 08:26:40;;;;;;;5.93;3.30;;;17.20;94.70;;;;;;6303481;22;20010;-77
2021/09/23 08:29:06;;;;;;;6.40;3.25;;;17.30;94.70;;;;;;6300044;22;20003;-76
2021/09/23 08:31:31;;;;;;;6.70;4.07;;;17.40;94.50;;;;;;6300099;22;19999;-77
2021/09/23 08:33:57;;;;;;;5.05;3.78;;;17.40;94.50;;;;;;6301398;22;20074;-76
2021/09/23 08:36:23;;;;;;;4.55;3.67;;;17.50;94.20;;;;;;6298209;22;20003;-77
2021/09/23 08:38:50;;;;;;;7.07;4.00;;;17.50;94.50;;;;;;6299854;22;20038;-77
2021/09/23 08:41:16;;;;;;;6.03;3.45;;;17.50;94.20;;;;;;6300910;22;20003;-76
2021/09/23 08:43:41;;;;;;;5.43;3.63;;;17.60;94.00;;;;;;6301277;22;20059;-77
2021/09/23 08:46:07;;;;;;;3.95;3.17;;;17.60;93.90;;;;;;6300977;22;20098;-77
2021/09/23 08:48:33;;;;;;;5.03;3.45;;;17.70;94.10;;;;;;6301800;22;20011;-77
2021/09/23 08:51:00;;;;;;;6.97;4.10;;;17.70;94.10;;;;;;6300689;22;20303;-77
2021/09/23 08:53:27;;;;;;;5.05;3.72;;;17.80;93.50;;;;;;6301606;22;20007;-77
2021/09/23 08:55:53;;;;;;;7.18;4.03;;;17.80;94.00;;;;;;6301464;22;20729;-77
2021/09/23 08:58:18;;;;;;;8.57;3.72;;;17.90;93.70;;;;;;6300841;22;20010;-76
2021/09/23 09:01:06;;;;;;;7.10;3.78;;;18.00;93.50;;;;;;6301391;22;20453;-77
2021/09/23 09:03:33;;;;;;;8.07;3.30;;;18.00;93.60;;;;;;6302100;22;20003;-76
2021/09/23 09:06:01;;;;;;;5.30;3.35;;;18.10;93.80;;;;;;6301272;22;19999;-77
2021/09/23 09:08:32;;;;;;;6.43;3.58;;;18.20;93.40;;;;;;6300994;22;20022;-78
2021/09/23 09:11:02;;;;;;;4.38;2.97;;;18.30;92.90;;;;;;6298230;22;20050;-77
2021/09/23 09:13:36;;;;;;;4.60;2.85;;;18.40;91.00;;;;;;6302594;22;20075;-77
2021/09/23 09:16:08;;;;;;;3.58;2.70;;;18.50;90.20;;;;;;6299209;22;20094;-77
2021/09/23 09:18:34;;;;;;;4.13;3.20;;;18.60;90.20;;;;;;6302087;22;20062;-77
2021/09/23 09:21:03;;;;;;;5.65;2.28;;;18.60;91.00;;;;;;6299721;22;20010;-76
2021/09/23 09:23:39;;;;;;;3.17;2.53;;;18.70;90.50;;;;;;6301353;22;20011;-76
2021/09/23 09:26:05;;;;;;;4.05;2.78;;;18.60;89.30;;;;;;6302232;22;20050;-76
2021/09/23 09:28:31;;;;;;;3.05;2.75;;;18.60;90.00;;;;;;6299936;22;20010;-76
2021/09/23 09:30:58;;;;;;;5.75;2.78;;;18.60;89.30;;;;;;6274790;22;19992;-77
2021/09/23 09:33:37;;;;;;;4.35;3.70;;;18.60;90.20;;;;;;6302092;22;20407;-76
2021/09/23 09:36:04;;;;;;;4.38;2.42;;;18.60;87.60;;;;;;6301875;22;20029;-77
2021/09/23 09:38:30;;;;;;;4.05;2.63;;;18.60;88.60;;;;;;6274178;22;20460;-77
2021/09/23 09:40:56;;;;;;;7.40;2.38;;;18.60;89.30;;;;;;6300819;22;20068;-76
2021/09/23 09:43:21;;;;;;;2.50;2.08;;;18.60;89.10;;;;;;6301445;22;20023;-76
2021/09/23 09:45:48;;;;;;;4.00;2.00;;;18.70;87.70;;;;;;6301736;22;19995;-76
2021/09/23 09:48:14;;;;;;;3.28;2.22;;;18.80;86.10;;;;;;6301625;22;20426;-75
2021/09/23 09:50:44;;;;;;;4.20;2.00;;;18.80;86.30;;;;;;6301498;22;20011;-76
2021/09/23 09:53:12;;;;;;;2.85;2.05;;;18.90;86.20;;;;;;6301809;22;20441;-75
2021/09/23 09:55:40;;;;;;;2.38;1.60;;;18.90;86.50;;;;;;6303401;22;19999;-76
2021/09/23 09:58:07;;;;;;;2.17;1.80;;;19.00;86.50;;;;;;6300795;22;20433;-77
2021/09/23 10:00:34;;;;;;;3.20;1.63;;;19.20;86.90;;;;;;6302781;22;20217;-77
2021/09/23 10:03:00;;;;;;;5.07;2.03;;;19.40;86.50;;;;;;6301505;22;20008;-76
2021/09/23 10:05:27;;;;;;;2.58;2.15;;;19.60;86.40;;;;;;6301820;22;20325;-77
2021/09/23 10:07:54;;;;;;;2.70;1.92;;;19.70;84.50;;;;;;6301457;22;20006;-76
2021/09/23 10:10:24;;;;;;;2.22;1.88;;;19.80;84.60;;;;;;6301529;22;20003;-76
2021/09/23 10:12:54;;;;;;;9.43;1.90;;;19.90;84.40;;;;;;6300646;22;20003;-77
2021/09/23 10:15:19;;;;;;;2.35;1.63;;;19.90;85.00;;;;;;6301551;22;20003;-77
2021/09/23 10:17:47;;;;;;;2.83;2.30;;;19.90;84.60;;;;;;6300921;22;20060;-76
2021/09/23 10:20:16;;;;;;;3.97;1.90;;;19.90;83.20;;;;;;6301021;22;20099;-76
2021/09/23 10:22:42;;;;;;;3.35;2.10;;;19.80;83.50;;;;;;6301543;22;20026;-77
2021/09/23 10:25:11;;;;;;;3.40;1.80;;;19.90;84.70;;;;;;6302062;22;20003;-76
2021/09/23 10:30:22;;;;;;;1.70;1.60;;;20.00;84.60;;;;;;6301028;22;20038;-77
2021/09/23 10:32:48;;;;;;;2.83;1.70;;;20.10;83.90;;;;;;6302284;22;20053;-77
2021/09/23 10:35:15;;;;;;;3.40;1.60;;;20.20;84.20;;;;;;6300129;22;20038;-76
2021/09/23 10:37:41;;;;;;;3.22;1.48;;;20.40;82.90;;;;;;6300919;22;20003;-77
2021/09/23 10:40:11;;;;;;;1.98;1.38;;;20.50;81.60;;;;;;6301109;22;20010;-76
2021/09/23 10:42:38;;;;;;;2.42;1.65;;;20.60;81.80;;;;;;6302391;22;20002;-77
2021/09/23 10:45:05;;;;;;;3.63;1.60;;;20.70;83.40;;;;;;6301863;22;20018;-76
2021/09/23 10:47:34;;;;;;;2.42;1.60;;;20.80;80.40;;;;;;6301095;22;20329;-77
2021/09/23 10:50:03;;;;;;;3.95;1.70;;;20.90;81.50;;;;;;6299999;22;20422;-77
2021/09/23 10:52:31;;;;;;;4.05;1.30;;;21.00;79.20;;;;;;6300842;22;20029;-77
2021/09/23 10:54:58;;;;;;;2.13;1.40;;;21.10;78.50;;;;;;6301798;22;19996;-78
2021/09/23 10:57:27;;;;;;;4.90;1.73;;;21.10;77.70;;;;;;6302483;22;20032;-77
2021/09/23 10:59:54;;;;;;;4.75;1.70;;;21.20;77.40;;;;;;6300888;22;20019;-77
2021/09/23 11:02:29;;;;;;;3.03;1.60;;;21.30;77.60;;;;;;6301673;22;20007;-77
2021/09/23 11:05:02;;;;;;;1.83;1.23;;;21.30;78.50;;;;;;6300763;22;20102;-77
2021/09/23 11:07:29;;;;;;;1.75;1.20;;;21.40;78.10;;;;;;6300384;22;20003;-77
2021/09/23 11:10:10;;;;;;;2.95;1.27;;;21.50;79.10;;;;;;6300335;22;20029;-77
2021/09/23 11:12:37;;;;;;;1.92;1.35;;;21.70;79.30;;;;;;6302242;22;20053;-77
2021/09/23 11:15:04;;;;;;;2.30;1.10;;;21.90;80.00;;;;;;6301227;22;19996;-77
2021/09/23 11:17:30;;;;;;;4.20;1.80;;;22.00;77.30;;;;;;6300992;22;20010;-76
2021/09/23 11:20:02;;;;;;;3.75;1.05;;;22.00;76.10;;;;;;6299721;22;19999;-77
2021/09/23 11:22:38;;;;;;;2.00;1.30;;;22.10;76.30;;;;;;6300723;22;20007;-76
2021/09/23 11:25:08;;;;;;;2.08;1.30;;;22.10;75.00;;;;;;6300875;22;20042;-76
2021/09/23 11:27:36;;;;;;;2.05;1.17;;;22.20;74.20;;;;;;6301868;22;20017;-77
2021/09/23 11:30:02;;;;;;;4.30;1.25;;;22.30;75.50;;;;;;6300310;22;19999;-78
2021/09/23 11:32:28;;;;;;;1.45;1.00;;;22.40;75.70;;;;;;6301106;22;20010;-77
2021/09/23 11:35:00;;;;;;;3.50;1.00;;;22.60;73.30;;;;;;6300498;22;20007;-77
2021/09/23 11:37:31;;;;;;;1.65;1.10;;;22.60;71.70;;;;;;6301368;22;20065;-76
2021/09/23 11:39:59;;;;;;;2.00;0.93;;;22.60;72.00;;;;;;6298289;22;20014;-76
2021/09/23 11:42:31;;;;;;;1.92;0.88;;;22.60;71.90;;;;;;6300801;22;20003;-76
2021/09/23 11:45:18;;;;;;;3.70;1.27;;;22.70;71.90;;;;;;6298843;22;20070;-77
2021/09/23 11:48:01;;;;;;;2.10;0.90;;;22.80;71.00;;;;;;6300275;22;19999;-78
2021/09/23 11:50:34;;;;;;;1.85;1.02;;;22.90;71.10;;;;;;6299536;22;19995;-75
2021/09/23 11:53:08;;;;;;;1.92;1.05;;;23.00;69.50;;;;;;6300619;22;20004;-77
2021/09/23 11:55:35;;;;;;;2.22;1.00;;;23.10;70.60;;;;;;6299591;22;20069;-76
2021/09/23 11:58:06;;;;;;;3.65;1.08;;;23.20;70.60;;;;;;6299345;22;20011;-77
2021/09/23 12:00:52;;;;;;;1.23;0.97;;;23.30;69.90;;;;;;6301840;22;20006;-76
2021/09/23 12:03:21;;;;;;;2.17;0.82;;;23.50;69.60;;;;;;6303400;22;20230;-77
2021/09/23 12:05:48;;;;;;;2.00;1.10;;;23.50;69.30;;;;;;6302846;22;19995;-77
2021/09/23 12:08:15;;;;;;;1.63;0.95;;;23.60;70.00;;;;;;6301539;22;20003;-77
2021/09/23 12:10:46;;;;;;;7.70;1.48;;;23.70;68.30;;;;;;6301224;22;20105;-76
2021/09/23 12:13:16;;;;;;;1.75;1.30;;;23.90;68.00;;;;;;6303571;22;20075;-78
2021/09/23 12:15:53;;;;;;;1.30;0.90;;;23.90;68.50;;;;;;6303366;22;19998;-76
2021/09/23 12:18:18;;;;;;;1.13;0.88;;;24.00;67.90;;;;;;6300523;22;20007;-77
2021/09/23 12:20:50;;;;;;;1.40;1.30;;;24.00;67.40;;;;;;6299980;22;20035;-77
2021/09/23 12:23:25;;;;;;;6.78;1.90;;;24.00;68.20;;;;;;6302012;22;20076;-77
2021/09/23 12:26:17;;;;;;;5.25;1.38;;;24.20;68.70;;;;;;6302161;22;20061;-77
2021/09/23 12:28:52;;;;;;;2.25;1.00;;;24.30;66.70;;;;;;6274098;22;20061;-77
2021/09/23 12:31:49;;;;;;;3.72;1.05;;;24.40;67.80;;;;;;6302436;22;19991;-77
2021/09/23 12:34:20;;;;;;;4.60;1.10;;;24.60;67.80;;;;;;6281827;22;20003;-77
2021/09/23 12:36:48;;;;;;;5.57;1.67;;;24.70;66.70;;;;;;6300682;22;20005;-77
2021/09/23 12:39:20;;;;;;;1.67;0.90;;;24.90;67.80;;;;;;6301099;22;20073;-77
2021/09/23 12:41:51;;;;;;;5.22;1.20;;;24.90;65.30;;;;;;6301629;22;20068;-77
2021/09/23 12:44:22;;;;;;;1.83;1.08;;;24.80;64.70;;;;;;6302211;22;20299;-77
2021/09/23 12:47:10;;;;;;;1.73;1.13;;;24.50;65.00;;;;;;6303788;22;19996;-77